Time;durP1;ratioP1;P1;durP2;ratioP2;P2;SDS_P1;SDS_P2;PMS_P1;PMS_P2;Temp;Humidity;BMP_temperature;BMP_pressure;BME280_temperature;BME280_humidity;BME280_pressure;Samples;Min_cycle;Max_cycle;Signal;HPM_P1;HPM_P2
2022/04/11 00:02:05;;;;;;;6.27;4.70;;;;;;;2.53;90.74;99119.59;5019975;28;104005;-69
2022/04/11 00:04:33;;;;;;;7.13;5.37;;;;;;;2.60;89.99;99126.34;5001245;28;103259;-65
2022/04/11 00:07:01;;;;;;;6.57;4.93;;;;;;;2.51;89.59;99118.81;5020702;28;102535;-66
2022/04/11 00:09:29;;;;;;;7.87;5.23;;;;;;;2.54;90.35;99123.94;5019133;28;103555;-66
2022/04/11 00:11:57;;;;;;;8.70;5.57;;;;;;;2.45;89.81;99123.38;5002465;28;102984;-69
2022/04/11 00:14:25;;;;;;;6.00;5.30;;;;;;;2.53;90.35;99117.00;5016911;27;104082;-69
2022/04/11 00:16:55;;;;;;;5.80;5.20;;;;;;;2.60;90.02;99118.50;5000784;28;102686;-68
2022/04/11 00:19:23;;;;;;;5.87;4.93;;;;;;;2.63;89.33;99105.38;5001343;28;102702;-69
2022/04/11 00:21:51;;;;;;;5.20;4.50;;;;;;;2.74;88.86;99110.22;5000789;28;104132;-69
2022/04/11 00:24:19;;;;;;;7.47;5.00;;;;;;;2.65;88.87;99107.91;5019870;28;103210;-70
2022/04/11 00:26:46;;;;;;;5.43;4.37;;;;;;;2.69;89.04;99107.78;5000898;28;103082;-68
2022/04/11 00:29:15;;;;;;;5.00;4.27;;;;;;;2.78;88.25;99112.66;5000380;28;104087;-68
2022/04/11 00:31:43;;;;;;;5.50;4.97;;;;;;;2.62;86.88;99103.66;5015480;28;104107;-69
2022/04/11 00:34:12;;;;;;;7.37;5.63;;;;;;;2.34;89.50;99105.47;5000044;28;103253;-69
2022/04/11 00:36:41;;;;;;;6.23;5.53;;;;;;;2.36;89.90;99108.88;5001895;28;102589;-69
2022/04/11 00:39:09;;;;;;;6.90;5.57;;;;;;;2.33;90.10;99108.97;5001180;28;104074;-70
2022/04/11 00:41:36;;;;;;;7.53;5.00;;;;;;;2.31;90.19;99101.22;5018336;28;104264;-70
2022/04/11 00:44:06;;;;;;;6.40;4.70;;;;;;;2.38;90.82;99101.03;5019276;28;102770;-66
2022/04/11 00:46:34;;;;;;;7.67;5.40;;;;;;;2.12;90.94;99099.25;5000635;28;102785;-66
2022/04/11 00:49:02;;;;;;;9.90;5.97;;;;;;;1.82;93.45;99090.66;5018892;28;103950;-66
2022/04/11 00:51:32;;;;;;;6.40;5.63;;;;;;;1.88;94.79;99094.84;5002777;28;103335;-66
2022/04/11 00:54:02;;;;;;;7.47;5.20;;;;;;;1.41;97.35;99091.91;5006701;28;104941;-65
2022/04/11 00:56:30;;;;;;;8.23;5.53;;;;;;;1.39;99.10;99080.69;5021496;28;102756;-66
2022/04/11 00:58:59;;;;;;;7.73;6.20;;;;;;;1.56;99.11;99088.00;5006916;28;104141;-66
2022/04/11 01:01:29;;;;;;;9.27;6.30;;;;;;;1.63;97.36;99092.97;5018078;27;103763;-66
2022/04/11 01:03:57;;;;;;;10.83;6.43;;;;;;;1.73;97.93;99090.94;5006481;28;103026;-66
2022/04/11 01:06:26;;;;;;;8.73;6.47;;;;;;;1.71;97.34;99083.16;5004542;28;102636;-66
2022/04/11 01:08:56;;;;;;;7.00;6.00;;;;;;;1.88;97.59;99085.22;5022646;27;103906;-66
2022/04/11 01:11:25;;;;;;;6.70;5.40;;;;;;;2.02;95.48;99082.22;5019203;28;104025;-66
2022/04/11 01:13:53;;;;;;;8.93;6.40;;;;;;;1.91;94.61;99090.34;5019796;28;103230;-66
2022/04/11 01:16:28;;;;;;;8.23;5.73;;;;;;;1.88;95.24;99089.63;5006102;28;102558;-66
2022/04/11 01:18:58;;;;;;;7.03;6.30;;;;;;;1.91;95.91;99089.53;5001904;28;102693;-66
2022/04/11 01:21:30;;;;;;;6.30;5.70;;;;;;;2.11;94.61;99092.31;5004129;28;105120;-66
2022/04/11 01:23:59;;;;;;;8.17;5.80;;;;;;;2.18;93.66;99086.88;5003986;28;103180;-69
2022/04/11 01:26:28;;;;;;;8.10;6.37;;;;;;;2.14;93.01;99087.88;5022475;28;103031;-70
2022/04/11 01:28:57;;;;;;;7.97;6.40;;;;;;;2.02;93.01;99085.66;5023312;28;102684;-70
2022/04/11 01:31:26;;;;;;;8.80;6.10;;;;;;;1.85;94.45;99092.31;5003342;28;103274;-69
2022/04/11 01:33:54;;;;;;;8.07;6.17;;;;;;;1.78;95.37;99086.44;5002318;28;104383;-69
2022/04/11 01:36:22;;;;;;;7.23;5.73;;;;;;;1.81;95.18;99088.09;5001617;28;102716;-70
2022/04/11 01:38:52;;;;;;;9.00;6.13;;;;;;;1.69;96.23;99081.50;5005949;28;102750;-69
2022/04/11 01:41:20;;;;;;;7.13;6.43;;;;;;;1.61;97.33;99080.88;5004162;28;104321;-70
2022/04/11 01:43:48;;;;;;;7.80;6.60;;;;;;;1.79;97.06;99084.69;5023093;28;103144;-70
2022/04/11 01:46:16;;;;;;;8.73;6.70;;;;;;;1.97;96.21;99078.88;5005099;28;103091;-70
2022/04/11 01:48:48;;;;;;;8.77;6.83;;;;;;;1.97;95.60;99076.28;5012051;28;103819;-69
2022/04/11 01:51:17;;;;;;;9.27;6.90;;;;;;;1.87;96.44;99080.94;5021067;28;104209;-70
2022/04/11 01:53:45;;;;;;;9.07;7.10;;;;;;;1.75;97.64;99079.56;5019239;28;103183;-69
2022/04/11 01:56:14;;;;;;;8.33;6.80;;;;;;;1.91;96.42;99071.28;5004291;28;102736;-70
2022/04/11 01:58:45;;;;;;;8.87;6.83;;;;;;;1.94;97.51;99068.59;5001286;28;103969;-70
2022/04/11 02:01:17;;;;;;;9.20;8.17;;;;;;;1.83;97.45;99073.25;5015594;27;103423;-69
2022/04/11 02:03:45;;;;;;;6.77;5.10;;;;;;;2.10;96.67;99067.19;5021186;28;103227;-69
2022/04/11 02:06:13;;;;;;;7.53;6.03;;;;;;;2.22;94.63;99064.16;5003229;28;103744;-65
2022/04/11 02:08:41;;;;;;;8.57;6.17;;;;;;;2.17;94.13;99060.84;5001923;28;102737;-65
2022/04/11 02:11:14;;;;;;;6.90;6.17;;;;;;;1.99;94.88;99057.13;5006876;28;104448;-66
2022/04/11 02:13:42;;;;;;;8.27;6.03;;;;;;;2.02;94.86;99051.78;5002460;28;103191;-66
2022/04/11 02:16:10;;;;;;;7.67;6.17;;;;;;;2.16;94.86;99051.34;5016877;27;102999;-66
2022/04/11 02:18:39;;;;;;;6.80;5.97;;;;;;;2.22;94.17;99054.59;5004295;28;103000;-66
2022/04/11 02:21:07;;;;;;;9.53;6.20;;;;;;;2.31;93.91;99037.78;5003208;28;104164;-66
2022/04/11 02:23:35;;;;;;;7.37;5.63;;;;;;;2.36;92.93;99046.28;5003897;28;104299;-66
2022/04/11 02:26:03;;;;;;;7.03;5.90;;;;;;;2.24;92.92;99036.31;5015258;27;102657;-65
2022/04/11 02:28:33;;;;;;;6.13;5.53;;;;;;;2.13;93.94;99041.84;5002456;28;104228;-66
2022/04/11 02:31:01;;;;;;;7.43;6.13;;;;;;;2.02;94.72;99041.34;5003168;28;103085;-66
2022/04/11 02:33:29;;;;;;;7.40;5.80;;;;;;;2.12;94.15;99039.31;5003733;28;104130;-65
2022/04/11 02:35:57;;;;;;;9.30;6.20;;;;;;;2.05;95.12;99032.59;5022412;28;103006;-66
2022/04/11 02:38:25;;;;;;;7.63;6.20;;;;;;;2.04;94.62;99026.53;5022287;27;103953;-65
2022/04/11 02:40:53;;;;;;;9.37;6.10;;;;;;;2.02;95.02;99024.88;5001172;28;103177;-65
2022/04/11 02:43:35;;;;;;;7.23;6.53;;;;;;;2.03;95.21;99022.22;5002973;28;105336;-66
2022/04/11 02:46:08;;;;;;;6.60;5.97;;;;;;;2.22;94.13;99015.47;5004233;28;102566;-65
2022/04/11 02:48:38;;;;;;;6.73;5.50;;;;;;;2.30;93.97;99012.63;5004025;28;104124;-65
2022/04/11 02:51:22;;;;;;;7.07;6.20;;;;;;;2.22;93.03;99012.00;5019420;28;103201;-64
2022/04/11 02:53:56;;;;;;;8.47;6.60;;;;;;;2.00;94.69;99000.59;4995473;28;103178;-65
2022/04/11 02:56:24;;;;;;;9.17;6.63;;;;;;;1.98;95.20;98992.00;5003698;28;102652;-65
2022/04/11 02:58:54;;;;;;;8.50;6.43;;;;;;;1.98;95.21;98995.47;5019792;28;103786;-64
2022/04/11 03:01:22;;;;;;;7.83;5.90;;;;;;;2.18;95.22;98995.66;5017742;28;103825;-64
2022/04/11 03:03:53;;;;;;;6.70;5.97;;;;;;;2.16;94.29;98992.22;5013783;28;103236;-65
2022/04/11 03:06:25;;;;;;;6.33;5.73;;;;;;;2.14;94.06;98999.25;4998517;28;103239;-65
2022/04/11 03:08:56;;;;;;;7.33;6.20;;;;;;;2.13;94.65;98991.50;4996246;28;102786;-65
2022/04/11 03:11:31;;;;;;;8.00;6.20;;;;;;;2.01;94.64;98978.88;4999651;28;105402;-65
2022/04/11 03:14:02;;;;;;;8.67;5.73;;;;;;;1.98;95.96;98981.56;4997468;28;105231;-64
2022/04/11 03:16:30;;;;;;;6.57;5.87;;;;;;;2.00;95.97;98974.53;4994484;28;102827;-64
2022/04/11 03:18:58;;;;;;;8.57;6.07;;;;;;;1.89;95.29;98971.44;4999142;28;102835;-64
2022/04/11 03:21:27;;;;;;;6.10;5.50;;;;;;;1.88;95.75;98974.97;5012152;28;105825;-64
2022/04/11 03:24:05;;;;;;;7.03;5.60;;;;;;;1.64;96.00;98969.66;5011988;28;105078;-68
2022/04/11 03:26:34;;;;;;;6.20;5.33;;;;;;;1.69;96.16;98965.13;4998016;28;103027;-68
2022/04/11 03:29:05;;;;;;;6.17;5.57;;;;;;;1.77;96.81;98967.47;4999763;28;102715;-68
2022/04/11 03:31:35;;;;;;;7.67;5.10;;;;;;;1.74;96.52;98962.41;5010722;28;104110;-64
2022/04/11 03:34:05;;;;;;;7.27;5.40;;;;;;;1.77;96.05;98964.06;4993875;28;105314;-64
2022/04/11 03:36:36;;;;;;;5.87;5.03;;;;;;;1.87;95.94;98970.66;5000001;28;104830;-64
2022/04/11 03:39:05;;;;;;;8.33;5.37;;;;;;;1.95;95.21;98972.09;4997903;28;102690;-64
2022/04/11 03:41:35;;;;;;;7.47;5.37;;;;;;;1.89;95.10;98971.44;4998896;28;105622;-69
2022/04/11 03:44:13;;;;;;;8.13;5.20;;;;;;;1.74;95.99;98973.66;4999430;28;102564;-68
2022/04/11 03:46:43;;;;;;;6.53;5.20;;;;;;;1.77;95.28;98964.06;4997414;28;102680;-69
2022/04/11 03:49:16;;;;;;;6.63;5.27;;;;;;;1.74;95.30;98965.00;5001318;28;103081;-68
2022/04/11 03:51:45;;;;;;;5.43;4.93;;;;;;;1.84;95.46;98960.31;4996085;28;103402;-69
2022/04/11 03:54:13;;;;;;;4.83;4.40;;;;;;;1.96;94.88;98962.53;5002052;28;103220;-69
2022/04/11 03:56:41;;;;;;;5.57;5.07;;;;;;;1.93;94.69;98963.50;5000439;28;102714;-69
2022/04/11 03:59:11;;;;;;;5.37;4.40;;;;;;;1.90;94.43;98965.34;5001768;28;102891;-69
2022/04/11 04:01:42;;;;;;;8.10;5.53;;;;;;;1.77;94.33;98956.25;4998763;28;102780;-70
2022/04/11 04:04:10;;;;;;;5.80;5.23;;;;;;;1.67;96.18;98966.94;5000059;28;103222;-69
2022/04/11 04:06:38;;;;;;;5.70;4.77;;;;;;;1.96;95.26;98959.94;4999119;28;102510;-69
2022/04/11 04:09:09;;;;;;;5.47;4.87;;;;;;;1.97;93.56;98956.41;5014433;28;104213;-70
2022/04/11 04:11:40;;;;;;;4.90;4.40;;;;;;;2.18;93.16;98963.50;4997196;28;104162;-64
2022/04/11 04:14:16;;;;;;;6.30;5.20;;;;;;;2.19;91.73;98949.59;5014903;28;103209;-64
2022/04/11 04:16:49;;;;;;;5.10;3.97;;;;;;;2.22;91.93;98954.66;4996320;28;102589;-64
2022/04/11 04:19:23;;;;;;;4.03;3.57;;;;;;;2.27;91.43;98947.56;4997325;28;102706;-64
2022/04/11 04:21:52;;;;;;;7.33;4.50;;;;;;;2.31;90.71;98941.31;4996075;28;106183;-68
2022/04/11 04:24:22;;;;;;;5.30;3.97;;;;;;;2.33;90.26;98936.88;4997416;28;103135;-63
2022/04/11 04:26:52;;;;;;;7.67;5.30;;;;;;;2.03;91.06;98938.81;4994922;28;102723;-64
2022/04/11 04:29:20;;;;;;;7.20;4.93;;;;;;;2.18;91.80;98942.66;4996626;28;103120;-64
2022/04/11 04:31:54;;;;;;;7.17;4.17;;;;;;;2.10;91.23;98934.25;4987367;28;104199;-63
2022/04/11 04:34:25;;;;;;;3.80;3.47;;;;;;;2.22;91.37;98933.81;4994284;28;105117;-63
2022/04/11 04:36:54;;;;;;;4.90;4.00;;;;;;;2.28;90.48;98930.97;4995124;28;103061;-64
2022/04/11 04:39:22;;;;;;;3.67;3.37;;;;;;;2.30;90.45;98942.22;4993779;28;102805;-64
2022/04/11 04:41:52;;;;;;;6.30;4.30;;;;;;;2.31;90.12;98934.34;4967200;28;103801;-64
2022/04/11 04:44:21;;;;;;;5.27;4.43;;;;;;;2.27;89.95;98927.53;4993349;28;103231;-64
2022/04/11 04:46:56;;;;;;;4.83;4.37;;;;;;;1.72;92.70;98928.56;4989196;28;102815;-64
2022/04/11 04:49:34;;;;;;;7.67;4.03;;;;;;;1.69;93.35;98933.03;4983356;28;102982;-64
2022/04/11 04:52:06;;;;;;;5.07;4.47;;;;;;;1.66;93.56;98928.78;4989593;28;103803;-64
2022/04/11 04:54:40;;;;;;;5.57;4.30;;;;;;;1.82;93.86;98938.69;4992617;28;104137;-64
2022/04/11 04:57:08;;;;;;;5.97;4.37;;;;;;;1.92;92.32;98937.47;4977693;28;103254;-70
2022/04/11 04:59:36;;;;;;;4.70;3.87;;;;;;;2.00;91.86;98941.53;4978229;28;102916;-64
2022/04/11 05:02:13;;;;;;;4.10;3.70;;;;;;;2.13;91.19;98939.38;4960201;28;105164;-68
2022/04/11 05:04:42;;;;;;;5.80;4.63;;;;;;;2.06;89.95;98940.47;4981762;28;104298;-64
2022/04/11 05:07:10;;;;;;;7.03;5.83;;;;;;;1.95;90.34;98945.19;4972049;28;102743;-64
2022/04/11 05:09:42;;;;;;;6.17;5.57;;;;;;;2.03;91.03;98943.16;4979339;28;103891;-64
2022/04/11 05:12:10;;;;;;;4.30;3.90;;;;;;;2.16;90.92;98944.47;4967275;28;104307;-64
2022/04/11 05:14:39;;;;;;;7.80;5.00;;;;;;;1.92;89.55;98945.28;4959523;28;104174;-64
2022/04/11 05:17:13;;;;;;;7.03;5.63;;;;;;;1.27;94.19;98945.66;4958474;28;104100;-64
2022/04/11 05:19:44;;;;;;;5.87;5.17;;;;;;;1.45;95.09;98945.09;4953898;28;103363;-63
2022/04/11 05:22:13;;;;;;;6.13;5.53;;;;;;;1.49;94.64;98938.88;4962696;28;103241;-64
2022/04/11 05:24:41;;;;;;;7.70;5.33;;;;;;;1.53;94.40;98943.09;4963543;28;103336;-64
2022/04/11 05:27:09;;;;;;;6.10;5.17;;;;;;;1.70;93.88;98945.16;4961197;28;102738;-64
2022/04/11 05:29:39;;;;;;;4.70;4.20;;;;;;;1.90;92.52;98947.97;4961256;28;102970;-64
2022/04/11 05:32:08;;;;;;;5.20;4.63;;;;;;;2.01;91.71;98940.63;4967533;28;103203;-64
2022/04/11 05:34:38;;;;;;;5.90;4.93;;;;;;;2.09;91.31;98941.22;4963885;28;103062;-65
2022/04/11 05:37:06;;;;;;;5.73;5.13;;;;;;;2.00;92.00;98943.28;4978375;28;102924;-65
2022/04/11 05:39:35;;;;;;;6.37;5.03;;;;;;;2.06;92.57;98937.84;4957420;27;103938;-70
2022/04/11 05:42:05;;;;;;;8.30;5.00;;;;;;;2.21;92.51;98942.56;4976460;28;104069;-69
2022/04/11 05:44:33;;;;;;;6.30;4.73;;;;;;;2.34;92.74;98943.81;4998961;28;103204;-65
2022/04/11 05:47:02;;;;;;;4.63;4.13;;;;;;;2.63;92.19;98935.81;4976236;28;102726;-65
2022/04/11 05:49:42;;;;;;;6.93;4.50;;;;;;;2.80;91.66;98928.19;5001024;28;103859;-70
2022/04/11 05:52:13;;;;;;;8.90;5.57;;;;;;;2.92;90.64;98932.94;4975512;28;104270;-65
2022/04/11 05:54:42;;;;;;;5.00;4.50;;;;;;;3.03;89.39;98935.16;4983295;28;103221;-70
2022/04/11 05:57:10;;;;;;;6.20;5.10;;;;;;;3.20;89.63;98927.50;4979913;28;102695;-69
2022/04/11 05:59:38;;;;;;;4.90;4.40;;;;;;;3.37;89.43;98932.06;5000041;28;103906;-65
2022/04/11 06:02:09;;;;;;;7.27;5.17;;;;;;;3.42;88.36;98927.53;4971179;28;104228;-65
2022/04/11 06:04:39;;;;;;;5.83;5.23;;;;;;;3.58;88.25;98928.59;4971204;28;103296;-65
2022/04/11 06:07:08;;;;;;;5.67;4.00;;;;;;;3.72;87.00;98926.28;4979883;28;102667;-65
2022/04/11 06:09:37;;;;;;;6.40;3.77;;;;;;;3.86;86.64;98939.63;4976774;28;103118;-64
2022/04/11 06:12:11;;;;;;;7.90;5.30;;;;;;;3.74;84.95;98929.66;4978394;28;102988;-65
2022/04/11 06:14:41;;;;;;;4.57;4.07;;;;;;;3.90;86.46;98935.97;4970663;28;105076;-65
2022/04/11 06:17:12;;;;;;;5.40;4.13;;;;;;;4.15;85.55;98927.94;4974433;28;102755;-65
2022/04/11 06:19:40;;;;;;;5.93;4.63;;;;;;;4.33;85.55;98928.91;4976628;28;104172;-70
2022/04/11 06:22:12;;;;;;;5.57;4.60;;;;;;;4.38;85.31;98926.97;4972892;28;104446;-70
2022/04/11 06:24:45;;;;;;;6.77;5.83;;;;;;;4.28;85.44;98930.88;4968426;28;104160;-70
2022/04/11 06:27:13;;;;;;;8.60;6.30;;;;;;;3.86;86.72;98937.00;4975082;28;102693;-70
2022/04/11 06:29:42;;;;;;;6.83;5.23;;;;;;;4.38;86.45;98933.00;4974660;28;103763;-70
2022/04/11 06:32:10;;;;;;;5.90;5.30;;;;;;;4.22;86.68;98932.00;4982484;28;104475;-69
2022/04/11 06:34:41;;;;;;;8.37;5.87;;;;;;;4.55;85.89;98934.88;4976750;28;102985;-70
2022/04/11 06:37:11;;;;;;;7.87;6.57;;;;;;;4.58;85.87;98929.53;4971021;28;102604;-70
2022/04/11 06:39:42;;;;;;;8.23;7.20;;;;;;;4.80;85.11;98929.44;4973740;28;102871;-70
2022/04/11 06:42:13;;;;;;;7.03;5.93;;;;;;;5.16;84.42;98927.72;4971294;28;105096;-70
2022/04/11 06:44:44;;;;;;;12.60;7.20;;;;;;;5.08;84.05;98932.47;4974261;28;105537;-65
2022/04/11 06:47:14;;;;;;;9.63;7.50;;;;;;;5.41;82.14;98932.66;4972717;28;102625;-70
2022/04/11 06:49:42;;;;;;;9.10;6.83;;;;;;;5.35;82.40;98928.56;4975597;28;102817;-70
2022/04/11 06:52:11;;;;;;;8.87;7.73;;;;;;;5.68;80.32;98920.81;4996744;28;104072;-65
2022/04/11 06:54:39;;;;;;;9.20;7.40;;;;;;;5.71;79.53;98925.91;4983703;28;103253;-65
2022/04/11 06:57:07;;;;;;;10.27;8.63;;;;;;;5.81;78.81;98917.53;4989265;28;102656;-63
2022/04/11 06:59:35;;;;;;;10.77;7.70;;;;;;;5.79;78.50;98918.53;4968476;28;103620;-68
2022/04/11 07:02:06;;;;;;;7.90;6.57;;;;;;;6.10;78.63;98918.72;4990433;28;103295;-69
2022/04/11 07:04:34;;;;;;;10.87;7.63;;;;;;;6.34;77.38;98925.31;4992773;28;103135;-68
2022/04/11 07:07:02;;;;;;;9.57;7.83;;;;;;;6.19;76.38;98920.03;4984962;28;102702;-68
2022/04/11 07:09:37;;;;;;;9.23;7.17;;;;;;;5.67;77.04;98925.22;4969265;28;103715;-68
2022/04/11 07:12:06;;;;;;;7.07;5.73;;;;;;;6.07;77.78;98929.38;4958400;28;104132;-64
2022/04/11 07:14:34;;;;;;;6.60;5.70;;;;;;;6.53;77.79;98921.75;4986042;28;102972;-64
2022/04/11 07:17:06;;;;;;;10.07;6.40;;;;;;;7.01;76.17;98919.16;4989507;28;103754;-64
2022/04/11 07:19:34;;;;;;;9.53;6.57;;;;;;;7.12;74.50;98921.19;4991921;28;103531;-64
2022/04/11 07:22:02;;;;;;;7.07;6.37;;;;;;;6.32;76.39;98924.56;4993646;28;103864;-64
2022/04/11 07:24:30;;;;;;;6.50;5.50;;;;;;;6.82;75.60;98923.72;4989583;28;103198;-64
2022/04/11 07:26:59;;;;;;;7.07;6.37;;;;;;;7.35;74.22;98921.63;4992855;28;102614;-65
2022/04/11 07:29:28;;;;;;;7.30;6.50;;;;;;;7.22;73.43;98912.72;4995736;28;102700;-64
2022/04/11 07:31:55;;;;;;;7.63;6.20;;;;;;;6.92;73.42;98903.88;4993831;28;104045;-63
2022/04/11 07:34:23;;;;;;;12.13;6.00;;;;;;;7.09;73.56;98909.06;4997171;28;104159;-64
2022/04/11 07:36:51;;;;;;;6.07;5.13;;;;;;;7.75;73.08;98912.31;4992280;28;103721;-64
2022/04/11 07:39:20;;;;;;;8.83;5.70;;;;;;;8.47;70.49;98901.91;4982933;28;103381;-63
2022/04/11 07:41:48;;;;;;;7.00;5.93;;;;;;;8.02;69.61;98904.59;4985209;28;104362;-69
2022/04/11 07:44:17;;;;;;;6.57;5.53;;;;;;;8.40;68.00;98904.97;4998135;28;103031;-63
2022/04/11 07:46:45;;;;;;;6.63;4.10;;;;;;;9.24;67.06;98904.09;4999233;28;102717;-63
2022/04/11 07:49:13;;;;;;;6.37;4.70;;;;;;;9.68;65.89;98909.16;4971033;28;102770;-63
2022/04/11 07:51:41;;;;;;;8.27;5.50;;;;;;;9.67;62.87;98908.31;4978513;28;104136;-64
2022/04/11 07:54:09;;;;;;;6.87;4.33;;;;;;;9.34;61.52;98905.22;4995486;28;103221;-65
2022/04/11 07:56:37;;;;;;;5.07;3.87;;;;;;;10.38;62.13;98902.69;4975655;28;102815;-63
2022/04/11 07:59:05;;;;;;;4.73;4.33;;;;;;;10.96;59.56;98897.69;4977281;28;103990;-64
2022/04/11 08:01:35;;;;;;;6.00;3.67;;;;;;;11.32;60.02;98903.94;4982777;28;104345;-63
2022/04/11 08:04:03;;;;;;;8.53;4.00;;;;;;;11.72;56.02;98902.78;4997661;28;103377;-63
2022/04/11 08:06:31;;;;;;;5.43;3.90;;;;;;;12.11;57.48;98894.50;4992377;28;102680;-63
2022/04/11 08:08:59;;;;;;;5.83;3.83;;;;;;;12.34;53.08;98894.56;4996440;28;103961;-64
2022/04/11 08:11:27;;;;;;;5.70;4.00;;;;;;;12.48;55.24;98899.66;4975974;28;104205;-64
2022/04/11 08:13:55;;;;;;;4.87;3.73;;;;;;;12.72;52.41;98895.09;4996837;28;104085;-64
2022/04/11 08:16:23;;;;;;;4.13;3.73;;;;;;;13.33;53.19;98897.25;4970025;28;103309;-64
2022/04/11 08:18:52;;;;;;;6.03;3.70;;;;;;;13.46;50.38;98898.94;4994643;28;102762;-64
2022/04/11 08:21:20;;;;;;;4.60;3.67;;;;;;;13.49;52.92;98890.72;4993647;28;103502;-64
2022/04/11 08:23:48;;;;;;;4.17;3.77;;;;;;;13.09;51.38;98885.97;4972089;28;103065;-64
2022/04/11 08:26:16;;;;;;;5.60;3.57;;;;;;;13.77;52.55;98895.47;4996023;28;103409;-65
2022/04/11 08:28:44;;;;;;;5.43;3.57;;;;;;;13.19;50.69;98888.75;4994409;28;103258;-64
2022/04/11 08:31:12;;;;;;;4.23;3.83;;;;;;;14.20;52.32;98887.44;4976855;28;104232;-65
2022/04/11 08:33:40;;;;;;;4.13;3.73;;;;;;;14.38;48.44;98883.25;4992855;28;103253;-65
2022/04/11 08:36:10;;;;;;;4.13;3.60;;;;;;;13.97;48.15;98891.16;4971907;28;102840;-64
2022/04/11 08:38:37;;;;;;;4.80;3.43;;;;;;;14.03;48.71;98880.03;4994675;28;103972;-64
2022/04/11 08:41:14;;;;;;;6.43;3.97;;;;;;;12.94;49.55;98883.66;4993638;28;104173;-65
2022/04/11 08:43:42;;;;;;;4.80;4.30;;;;;;;14.12;49.02;98879.28;4990107;28;104236;-65
2022/04/11 08:46:17;;;;;;;5.83;3.60;;;;;;;14.19;47.92;98881.28;4979284;28;102724;-65
2022/04/11 08:48:45;;;;;;;4.57;3.70;;;;;;;15.13;50.94;98877.63;4992797;28;102666;-66
2022/04/11 08:51:15;;;;;;;7.03;4.37;;;;;;;15.10;46.84;98870.75;4982847;28;103292;-65
2022/04/11 08:53:44;;;;;;;3.20;2.90;;;;;;;16.00;46.15;98868.81;4988115;28;103381;-64
2022/04/11 08:56:12;;;;;;;4.93;3.83;;;;;;;15.45;44.62;98865.78;4992253;28;102894;-65
2022/04/11 08:58:40;;;;;;;4.10;3.33;;;;;;;14.48;49.45;98871.69;4969113;28;103875;-65
2022/04/11 09:01:08;;;;;;;5.33;3.50;;;;;;;15.81;46.90;98863.47;4988020;28;103446;-65
2022/04/11 09:03:36;;;;;;;4.47;3.70;;;;;;;16.20;46.55;98851.81;4988257;28;103359;-65
2022/04/11 09:06:06;;;;;;;5.53;3.80;;;;;;;15.85;47.39;98859.56;4959876;28;102713;-65
2022/04/11 09:08:41;;;;;;;4.80;3.30;;;;;;;16.59;46.46;98852.63;4991773;28;102907;-65
2022/04/11 09:11:10;;;;;;;3.70;3.13;;;;;;;16.36;44.29;98860.09;4990034;28;105185;-65
2022/04/11 09:14:00;;;;;;;4.50;3.30;;;;;;;16.43;43.64;98855.84;4994314;28;103321;-71
2022/04/11 09:16:28;;;;;;;3.03;2.60;;;;;;;16.40;41.60;98840.13;4988389;28;102726;-71
2022/04/11 09:18:57;;;;;;;5.60;2.77;;;;;;;16.44;43.71;98843.38;4981078;28;103740;-66
2022/04/11 09:21:44;;;;;;;4.77;3.40;;;;;;;16.72;43.33;98837.97;4978098;28;104097;-66
2022/04/11 09:24:19;;;;;;;4.80;3.00;;;;;;;16.41;41.04;98833.84;4978720;28;104272;-66
2022/04/11 09:26:47;;;;;;;4.73;2.80;;;;;;;16.86;43.69;98831.31;5000385;28;102739;-66
2022/04/11 09:29:16;;;;;;;3.63;2.50;;;;;;;16.83;41.92;98836.94;4982010;28;103120;-72
2022/04/11 09:31:44;;;;;;;3.45;2.22;;;;;;;17.18;41.37;98842.38;4980349;28;104170;-72
2022/04/11 09:34:18;;;;;;;4.65;2.40;;;;;;;16.12;43.34;98838.34;4980123;28;104100;-66
2022/04/11 09:36:48;;;;;;;4.70;2.42;;;;;;;16.36;41.97;98838.75;5000804;28;102727;-66
2022/04/11 09:39:36;;;;;;;4.82;2.38;;;;;;;15.98;41.87;98833.47;4981833;28;104128;-73
2022/04/11 09:42:05;;;;;;;2.72;2.08;;;;;;;17.34;41.50;98831.91;4998837;28;103260;-66
2022/04/11 09:44:34;;;;;;;2.15;1.95;;;;;;;17.51;41.78;98827.59;4983209;28;104234;-66
2022/04/11 09:47:22;;;;;;;5.13;2.28;;;;;;;17.22;39.15;98826.91;5000545;28;103214;-72
2022/04/11 09:49:51;;;;;;;2.45;2.20;;;;;;;16.88;39.95;98820.50;5002913;28;103902;-72
2022/04/11 09:52:19;;;;;;;2.78;1.95;;;;;;;17.85;38.98;98804.53;5000206;28;104027;-73
2022/04/11 09:54:50;;;;;;;3.15;2.40;;;;;;;15.33;41.33;98815.47;5003546;28;103158;-73
2022/04/11 09:57:19;;;;;;;2.40;2.08;;;;;;;14.91;41.80;98804.16;4999760;28;103045;-73
2022/04/11 09:59:49;;;;;;;3.13;1.83;;;;;;;16.44;41.03;98798.03;5001740;28;103867;-73
2022/04/11 10:02:44;;;;;;;2.72;1.95;;;;;;;17.10;41.93;98796.06;4983247;28;105070;-72
2022/04/11 10:05:12;;;;;;;4.40;2.10;;;;;;;16.97;40.27;98790.25;4979675;28;103406;-67
2022/04/11 10:07:41;;;;;;;2.85;1.92;;;;;;;17.48;40.12;98790.50;5004862;28;102655;-71
2022/04/11 10:10:15;;;;;;;3.22;1.80;;;;;;;17.49;37.81;98786.00;4989322;28;102943;-65
2022/04/11 10:12:43;;;;;;;3.70;2.10;;;;;;;15.61;39.73;98778.25;4975951;28;104285;-65
2022/04/11 10:15:12;;;;;;;5.82;2.10;;;;;;;16.03;42.69;98783.25;4994504;28;102695;-67
2022/04/11 10:17:40;;;;;;;2.55;2.10;;;;;;;16.59;39.95;98778.75;4977089;28;102761;-66
2022/04/11 10:20:08;;;;;;;2.60;1.88;;;;;;;16.63;38.62;98776.66;4975649;28;102755;-66
2022/04/11 10:22:47;;;;;;;2.72;2.10;;;;;;;16.75;39.13;98768.34;4990499;28;103285;-66
2022/04/11 10:25:20;;;;;;;3.42;1.95;;;;;;;17.14;39.39;98774.28;4995629;28;104742;-67
2022/04/11 10:27:47;;;;;;;3.47;2.25;;;;;;;16.98;37.26;98773.28;4978329;28;103470;-66
2022/04/11 10:30:27;;;;;;;2.15;1.63;;;;;;;17.64;38.90;98768.47;4965909;28;102850;-66
2022/04/11 10:32:56;;;;;;;2.95;2.03;;;;;;;17.32;38.96;98759.13;4989465;28;103915;-66
2022/04/11 10:35:34;;;;;;;2.72;2.15;;;;;;;17.23;38.63;98767.22;4994341;28;103076;-66
2022/04/11 10:38:07;;;;;;;3.58;1.60;;;;;;;16.45;38.54;98765.88;4971601;28;103086;-66
2022/04/11 10:40:38;;;;;;;2.03;1.65;;;;;;;17.20;37.42;98764.84;4994454;28;103797;-66
2022/04/11 10:43:18;;;;;;;3.15;2.13;;;;;;;17.47;37.31;98762.09;4992627;28;103628;-66
2022/04/11 10:45:57;;;;;;;2.05;1.80;;;;;;;17.72;37.69;98750.66;4994296;28;103215;-66
2022/04/11 10:49:05;;;;;;;4.68;2.38;;;;;;;16.40;36.46;98760.16;4971753;28;103103;-66
2022/04/11 10:51:34;;;;;;;2.55;1.88;;;;;;;17.18;37.94;98756.13;4978288;28;104020;-66
2022/04/11 10:54:16;;;;;;;2.13;1.70;;;;;;;17.46;40.13;98739.03;4972226;28;104062;-66
2022/04/11 10:57:05;;;;;;;3.22;1.88;;;;;;;17.23;37.99;98743.19;4989950;28;103239;-65
2022/04/11 11:00:08;;;;;;;2.20;2.03;;;;;;;16.91;38.36;98740.16;4991007;28;102669;-65
2022/04/11 11:03:08;;;;;;;4.00;1.90;;;;;;;17.73;37.76;98728.31;4991410;28;104040;-66
2022/04/11 11:05:39;;;;;;;3.17;1.80;;;;;;;18.04;36.91;98725.19;4949119;28;104395;-72
2022/04/11 11:08:27;;;;;;;4.07;1.73;;;;;;;17.53;37.84;98723.25;4992203;28;103319;-73
2022/04/11 11:10:59;;;;;;;2.22;1.80;;;;;;;17.49;38.54;98721.91;4985549;28;103712;-73
2022/04/11 11:13:41;;;;;;;2.83;1.70;;;;;;;17.63;37.06;98716.00;4973899;28;102777;-73
2022/04/11 11:16:35;;;;;;;1.65;1.48;;;;;;;17.94;36.83;98704.75;4969059;28;104141;-73
2022/04/11 11:19:20;;;;;;;2.33;1.40;;;;;;;17.31;37.72;98703.22;4994586;28;104175;-73
2022/04/11 11:22:04;;;;;;;3.03;1.85;;;;;;;17.79;37.69;98690.28;4995919;28;102682;-72
2022/04/11 11:24:35;;;;;;;2.47;1.92;;;;;;;17.74;36.57;98689.09;4989935;28;103507;-66
2022/04/11 11:27:05;;;;;;;2.05;1.70;;;;;;;17.15;36.53;98695.06;4974627;28;104233;-65
2022/04/11 11:29:43;;;;;;;2.42;1.90;;;;;;;18.23;35.73;98682.19;4994009;28;103248;-73
2022/04/11 11:32:13;;;;;;;3.90;1.90;;;;;;;17.77;36.97;98673.56;4961437;28;103107;-66
2022/04/11 11:34:43;;;;;;;2.00;1.80;;;;;;;17.50;35.68;98676.34;4989526;28;104005;-66
2022/04/11 11:37:12;;;;;;;1.73;1.60;;;;;;;18.05;36.60;98665.41;4991225;28;103259;-66
2022/04/11 11:39:43;;;;;;;1.92;1.80;;;;;;;17.49;36.77;98674.63;4965056;28;104683;-66
2022/04/11 11:42:14;;;;;;;2.78;1.77;;;;;;;17.64;36.59;98677.63;4965579;28;103367;-65
2022/04/11 11:44:46;;;;;;;3.25;1.77;;;;;;;18.04;37.05;98669.91;4985933;28;103694;-67
2022/04/11 11:47:15;;;;;;;1.48;1.38;;;;;;;19.10;35.42;98662.13;4990553;28;103186;-66
2022/04/11 11:49:45;;;;;;;3.53;1.88;;;;;;;18.82;36.07;98659.88;4967519;28;103308;-71